createdAt,value
2023-03-28T00:02:10.557Z,8.83
2023-03-28T00:04:37.566Z,7.13
2023-03-28T00:07:05.486Z,9.03
2023-03-28T00:09:32.925Z,10.93
2023-03-28T00:11:59.846Z,8.03
2023-03-28T00:14:26.711Z,11.80
2023-03-28T00:16:53.637Z,11.43
2023-03-28T00:19:21.885Z,9.83
2023-03-28T00:21:51.330Z,11.83
2023-03-28T00:24:23.750Z,9.77
2023-03-28T00:26:54.633Z,12.20
2023-03-28T00:29:22.803Z,14.50
2023-03-28T00:31:50.793Z,9.87
2023-03-28T00:34:18.350Z,9.77
2023-03-28T00:36:45.291Z,13.20
2023-03-28T00:39:13.378Z,12.63
2023-03-28T00:41:42.718Z,12.03
2023-03-28T00:44:45.288Z,11.57
2023-03-28T00:47:18.261Z,14.23
2023-03-28T00:49:46.931Z,10.07
2023-03-28T00:52:15.648Z,13.53
2023-03-28T00:54:42.514Z,12.50
2023-03-28T00:57:10.365Z,13.40
2023-03-28T00:59:38.920Z,12.37
2023-03-28T01:02:07.256Z,13.47
2023-03-28T01:04:46.398Z,12.20
2023-03-28T01:07:14.000Z,11.13
2023-03-28T01:09:44.094Z,13.27
2023-03-28T01:12:11.931Z,11.13
2023-03-28T01:14:40.028Z,14.33
2023-03-28T01:17:07.268Z,13.03
2023-03-28T01:19:50.477Z,13.20
2023-03-28T01:22:41.876Z,16.37
2023-03-28T01:25:38.547Z,15.20
2023-03-28T01:28:31.375Z,17.53
2023-03-28T01:31:26.843Z,13.73
2023-03-28T01:34:36.801Z,16.13
2023-03-28T01:37:24.105Z,15.73
2023-03-28T01:40:20.015Z,13.77
2023-03-28T01:42:59.733Z,15.23
2023-03-28T01:45:48.396Z,18.47
2023-03-28T01:48:32.728Z,17.00
2023-03-28T01:51:09.742Z,13.87
2023-03-28T01:53:43.806Z,13.73
2023-03-28T01:56:41.138Z,16.03
2023-03-28T01:59:22.950Z,14.63
2023-03-28T02:01:54.007Z,16.83
2023-03-28T02:04:24.094Z,15.40
2023-03-28T02:06:54.042Z,16.60
2023-03-28T02:09:24.975Z,19.73
2023-03-28T02:11:57.050Z,18.70
2023-03-28T02:14:27.815Z,16.07
2023-03-28T02:17:00.569Z,14.20
2023-03-28T02:19:28.712Z,18.07
2023-03-28T02:22:07.210Z,17.30
2023-03-28T02:24:34.062Z,17.30
2023-03-28T02:27:01.819Z,15.33
2023-03-28T02:29:30.671Z,16.23
2023-03-28T02:31:57.606Z,14.13
2023-03-28T02:34:24.593Z,15.30
2023-03-28T02:37:11.440Z,14.93
2023-03-28T02:40:07.385Z,14.20
2023-03-28T02:42:53.694Z,15.80
2023-03-28T02:46:00.639Z,14.07
2023-03-28T02:48:30.945Z,16.23
2023-03-28T02:51:34.682Z,15.87
2023-03-28T02:54:22.861Z,17.57
2023-03-28T02:57:04.079Z,19.37
2023-03-28T02:59:57.381Z,16.60
2023-03-28T03:02:24.537Z,15.90
2023-03-28T03:04:51.716Z,16.73
2023-03-28T03:07:19.190Z,16.73
2023-03-28T03:09:47.160Z,17.23
2023-03-28T03:12:14.255Z,15.40
2023-03-28T03:14:42.091Z,15.80
2023-03-28T03:17:08.933Z,12.60
2023-03-28T03:19:36.379Z,16.90
2023-03-28T03:22:03.711Z,14.37
2023-03-28T03:24:30.695Z,13.90
2023-03-28T03:26:57.968Z,17.00
2023-03-28T03:29:24.826Z,13.93
2023-03-28T03:31:51.775Z,13.73
2023-03-28T03:34:18.744Z,13.77
2023-03-28T03:36:45.957Z,13.27
2023-03-28T03:39:12.966Z,12.97
2023-03-28T03:41:39.933Z,18.10
2023-03-28T03:44:06.873Z,14.07
2023-03-28T03:46:33.705Z,13.07
2023-03-28T03:49:00.530Z,13.23
2023-03-28T03:51:27.335Z,14.03
2023-03-28T03:53:57.738Z,11.10
2023-03-28T03:56:24.712Z,14.33
2023-03-28T03:58:51.622Z,13.23
2023-03-28T04:01:21.991Z,13.83
2023-03-28T04:03:49.146Z,14.70
2023-03-28T04:06:16.237Z,15.17
2023-03-28T04:08:43.297Z,12.37
2023-03-28T04:11:10.674Z,13.07
2023-03-28T04:13:38.304Z,14.83
2023-03-28T04:16:05.718Z,16.40
2023-03-28T04:18:34.199Z,14.17
2023-03-28T04:21:02.218Z,13.67
2023-03-28T04:23:30.282Z,12.57
2023-03-28T04:25:57.736Z,12.03
2023-03-28T04:28:25.756Z,13.33
2023-03-28T04:30:54.691Z,11.13
2023-03-28T04:33:25.328Z,13.33
2023-03-28T04:36:00.344Z,12.47
2023-03-28T04:38:31.782Z,14.30
2023-03-28T04:40:59.338Z,10.47
2023-03-28T04:43:26.896Z,13.33
2023-03-28T04:45:54.651Z,13.80
2023-03-28T04:48:23.083Z,14.50
2023-03-28T04:50:50.329Z,10.30
2023-03-28T04:53:17.498Z,13.10
2023-03-28T04:55:50.371Z,11.50
2023-03-28T04:58:18.298Z,12.50
2023-03-28T05:00:46.017Z,12.60
2023-03-28T05:03:23.073Z,11.43
2023-03-28T05:05:52.379Z,12.77
2023-03-28T05:08:22.653Z,11.60
2023-03-28T05:10:49.910Z,12.67
2023-03-28T05:13:17.492Z,13.27
2023-03-28T05:15:46.859Z,17.97
2023-03-28T05:18:14.477Z,13.63
2023-03-28T05:20:41.348Z,13.13
2023-03-28T05:23:08.226Z,10.43
2023-03-28T05:25:36.559Z,11.70
2023-03-28T05:28:04.503Z,11.90
2023-03-28T05:30:31.616Z,12.17
2023-03-28T05:32:59.623Z,12.97
2023-03-28T05:35:26.910Z,13.50
2023-03-28T05:37:53.688Z,14.63
2023-03-28T05:40:20.571Z,13.20
2023-03-28T05:42:47.432Z,16.47
2023-03-28T05:45:14.964Z,14.33
2023-03-28T05:47:41.941Z,13.13
2023-03-28T05:50:09.667Z,15.17
2023-03-28T05:52:36.580Z,16.13
2023-03-28T05:55:03.561Z,14.40
2023-03-28T05:57:30.939Z,17.23
2023-03-28T05:59:57.744Z,15.83
2023-03-28T06:02:25.185Z,14.73
2023-03-28T06:04:55.419Z,17.23
2023-03-28T06:07:35.285Z,17.03
2023-03-28T06:10:09.403Z,18.07
2023-03-28T06:12:36.678Z,17.10
2023-03-28T06:15:04.031Z,18.27
2023-03-28T06:17:30.875Z,20.57
2023-03-28T06:19:57.800Z,17.97
2023-03-28T06:22:25.220Z,20.27
2023-03-28T06:24:52.685Z,18.37
2023-03-28T06:27:19.603Z,20.20
2023-03-28T06:29:49.211Z,23.97
2023-03-28T06:32:18.203Z,21.07
2023-03-28T06:34:45.391Z,22.73
2023-03-28T06:37:14.788Z,21.50
2023-03-28T06:39:41.769Z,22.83
2023-03-28T06:42:09.720Z,22.80
2023-03-28T06:44:39.074Z,22.33
2023-03-28T06:47:11.692Z,24.73
2023-03-28T06:49:38.462Z,27.83
2023-03-28T06:52:07.570Z,23.47
2023-03-28T06:54:34.445Z,25.70
2023-03-28T06:57:01.469Z,23.43
2023-03-28T06:59:29.591Z,26.43
2023-03-28T07:01:56.866Z,23.40
2023-03-28T07:04:23.752Z,25.63
2023-03-28T07:06:50.516Z,24.13
2023-03-28T07:09:18.965Z,25.57
2023-03-28T07:11:45.970Z,26.67
2023-03-28T07:14:14.061Z,25.57
2023-03-28T07:16:42.398Z,27.80
2023-03-28T07:19:09.415Z,27.57
2023-03-28T07:21:36.753Z,23.40
2023-03-28T07:24:04.834Z,25.10
2023-03-28T07:26:31.872Z,27.93
2023-03-28T07:28:58.848Z,24.10
2023-03-28T07:31:25.868Z,23.90
2023-03-28T07:33:58.377Z,24.60
2023-03-28T07:36:28.111Z,24.63
2023-03-28T07:38:55.040Z,24.67
2023-03-28T07:41:24.539Z,23.53
2023-03-28T07:43:51.406Z,21.80
2023-03-28T07:46:20.953Z,20.97
2023-03-28T07:48:48.071Z,25.47
2023-03-28T07:51:17.853Z,17.67
2023-03-28T07:53:45.246Z,20.17
2023-03-28T07:56:12.542Z,20.47
2023-03-28T08:06:52.304Z,18.67
2023-03-28T08:09:20.635Z,18.53
2023-03-28T08:11:48.979Z,20.10
2023-03-28T08:14:17.825Z,16.70
2023-03-28T08:16:46.206Z,17.10
2023-03-28T08:19:13.742Z,14.60
2023-03-28T08:36:14.947Z,12.17
2023-03-28T08:38:42.704Z,15.17
2023-03-28T08:41:18.373Z,11.40
2023-03-28T08:43:54.048Z,11.03
2023-03-28T08:46:23.476Z,12.97
2023-03-28T08:48:52.907Z,12.87
2023-03-28T08:51:22.674Z,11.57
2023-03-28T08:54:22.512Z,12.20
2023-03-28T08:56:52.430Z,8.43
2023-03-28T08:59:26.582Z,9.30
2023-03-28T09:01:53.491Z,7.07
2023-03-28T09:04:35.201Z,7.33
2023-03-28T09:07:12.256Z,6.53
2023-03-28T09:09:44.596Z,6.90
2023-03-28T09:12:54.132Z,4.97
2023-03-28T09:15:23.379Z,5.50
2023-03-28T09:18:19.358Z,5.43
2023-03-28T09:20:58.009Z,6.97
2023-03-28T09:23:45.930Z,7.37
2023-03-28T09:26:17.912Z,4.90
2023-03-28T09:29:04.593Z,5.80
2023-03-28T09:31:36.394Z,5.43
2023-03-28T09:34:09.238Z,5.67
2023-03-28T09:36:49.372Z,5.57
2023-03-28T09:39:34.459Z,8.77
2023-03-28T09:42:07.936Z,9.40
2023-03-28T09:44:54.578Z,11.63
2023-03-28T09:47:22.510Z,12.60
2023-03-28T09:49:54.321Z,15.63
2023-03-28T09:52:26.658Z,14.47
2023-03-28T09:54:54.545Z,18.60
2023-03-28T09:57:21.614Z,16.00
2023-03-28T09:59:48.654Z,17.13
2023-03-28T10:02:27.936Z,19.10
2023-03-28T10:04:55.313Z,18.33
2023-03-28T10:07:42.455Z,18.27
2023-03-28T10:10:21.901Z,16.47
2023-03-28T10:12:49.467Z,16.90
2023-03-28T10:15:39.422Z,16.63
2023-03-28T10:18:06.736Z,16.83
2023-03-28T10:20:37.667Z,17.13
2023-03-28T10:23:05.848Z,18.00
2023-03-28T10:25:44.610Z,22.93
2023-03-28T10:28:18.750Z,17.10
2023-03-28T10:30:54.344Z,19.10
2023-03-28T10:33:26.888Z,17.83
2023-03-28T10:36:02.761Z,15.83
2023-03-28T10:38:37.338Z,13.57
2023-03-28T10:41:12.662Z,11.93
2023-03-28T10:43:41.719Z,10.77
2023-03-28T10:46:14.605Z,9.17
2023-03-28T10:48:46.074Z,7.50
2023-03-28T10:51:22.226Z,7.80
2023-03-28T10:54:23.524Z,5.23
2023-03-28T10:56:56.676Z,5.60
2023-03-28T10:59:29.713Z,4.67
2023-03-28T11:02:17.469Z,4.80
2023-03-28T11:05:15.421Z,5.87
2023-03-28T11:07:53.236Z,5.57
2023-03-28T11:10:34.466Z,5.40
2023-03-28T11:13:21.879Z,5.60
2023-03-28T11:16:01.080Z,5.37
2023-03-28T11:18:58.980Z,5.50
2023-03-28T11:21:48.627Z,4.97
2023-03-28T11:24:34.025Z,5.30
2023-03-28T11:27:18.299Z,5.00
2023-03-28T11:29:53.447Z,4.87
2023-03-28T11:32:37.515Z,4.70
2023-03-28T11:35:31.692Z,4.87
2023-03-28T11:38:10.566Z,3.63
2023-03-28T11:40:37.596Z,2.73
2023-03-28T11:43:07.540Z,4.17
2023-03-28T11:45:52.150Z,3.60
2023-03-28T11:48:26.000Z,3.53
2023-03-28T11:51:15.415Z,2.90
2023-03-28T11:54:01.473Z,2.27
2023-03-28T11:56:40.518Z,3.53
2023-03-28T11:59:14.803Z,3.07
2023-03-28T12:01:47.278Z,3.53
2023-03-28T12:04:21.181Z,2.90
2023-03-28T12:07:03.139Z,3.30
2023-03-28T12:09:44.955Z,3.43
2023-03-28T12:12:21.648Z,2.80
2023-03-28T12:15:13.584Z,3.23
2023-03-28T12:18:06.732Z,2.57
2023-03-28T12:20:43.949Z,3.60
2023-03-28T12:23:26.874Z,2.93
2023-03-28T12:26:19.416Z,2.87
2023-03-28T12:28:51.772Z,3.00
2023-03-28T12:31:29.336Z,5.30
2023-03-28T12:34:12.671Z,2.73
2023-03-28T12:36:57.620Z,3.17
2023-03-28T12:40:08.310Z,3.33
2023-03-28T12:42:45.010Z,3.70
2023-03-28T12:45:39.799Z,3.67
2023-03-28T12:50:56.350Z,4.23
2023-03-28T12:53:24.346Z,3.93
2023-03-28T12:55:55.240Z,2.77
2023-03-28T12:58:28.441Z,4.23
2023-03-28T13:01:16.191Z,3.63
2023-03-28T13:04:04.220Z,2.37
2023-03-28T13:06:57.744Z,3.50
2023-03-28T13:09:51.782Z,3.00
2023-03-28T13:12:40.123Z,2.47
2023-03-28T13:15:13.128Z,2.53
2023-03-28T13:17:47.965Z,2.47
2023-03-28T13:20:18.025Z,2.63
2023-03-28T13:22:54.715Z,3.80
2023-03-28T13:25:26.253Z,2.33
2023-03-28T13:28:17.373Z,2.30
2023-03-28T13:30:46.693Z,2.77
2023-03-28T13:33:27.666Z,3.67
2023-03-28T13:36:03.652Z,2.37
2023-03-28T13:38:30.848Z,2.33
2023-03-28T13:41:00.884Z,2.37
2023-03-28T13:43:42.675Z,2.97
2023-03-28T13:46:23.826Z,2.73
2023-03-28T13:48:55.233Z,3.57
2023-03-28T13:51:53.325Z,3.37
2023-03-28T13:54:21.160Z,3.03
2023-03-28T13:56:53.090Z,2.17
2023-03-28T13:59:32.766Z,3.43
2023-03-28T14:02:02.092Z,3.73
2023-03-28T14:04:34.282Z,3.67
2023-03-28T14:07:02.203Z,3.60
2023-03-28T14:09:34.445Z,2.80
2023-03-28T14:12:12.939Z,3.93
2023-03-28T14:14:45.177Z,2.47
2023-03-28T14:17:16.678Z,3.57
2023-03-28T14:19:46.802Z,2.27
2023-03-28T14:22:21.211Z,2.87
2023-03-28T14:24:52.102Z,1.73
2023-03-28T14:27:28.206Z,2.60
2023-03-28T14:29:57.197Z,3.17
2023-03-28T14:32:32.340Z,3.47
2023-03-28T14:35:16.121Z,4.15
2023-03-28T14:38:16.799Z,2.63
2023-03-28T14:40:45.913Z,2.77
2023-03-28T14:43:13.824Z,2.33
2023-03-28T14:45:47.973Z,3.67
2023-03-28T14:48:20.716Z,3.57
2023-03-28T14:50:52.957Z,2.50
2023-03-28T14:53:24.763Z,2.87
2023-03-28T14:55:54.469Z,2.80
2023-03-28T14:58:22.738Z,1.47
2023-03-28T15:03:43.878Z,2.40
2023-03-28T15:06:20.314Z,3.33
2023-03-28T15:08:47.199Z,4.60
2023-03-28T15:11:25.119Z,6.47
2023-03-28T15:14:12.513Z,3.47
2023-03-28T15:16:42.529Z,2.57
2023-03-28T15:19:29.522Z,3.30
2023-03-28T15:22:06.500Z,2.93
2023-03-28T15:24:36.746Z,2.57
2023-03-28T15:27:04.869Z,2.67
2023-03-28T15:29:36.208Z,3.97
2023-03-28T15:32:14.670Z,3.13
2023-03-28T15:34:47.740Z,3.00
2023-03-28T15:37:20.677Z,2.73
2023-03-28T15:40:21.545Z,2.67
2023-03-28T15:42:55.959Z,4.23
2023-03-28T15:45:25.300Z,2.73
2023-03-28T15:47:55.359Z,3.17
2023-03-28T15:50:35.604Z,4.23
2023-03-28T15:53:14.653Z,3.57
2023-03-28T15:55:42.805Z,3.13
2023-03-28T15:58:21.312Z,4.43
2023-03-28T16:00:55.279Z,3.13
2023-03-28T16:03:32.511Z,2.40
2023-03-28T16:06:30.754Z,3.97
2023-03-28T16:09:20.708Z,2.70
2023-03-28T16:11:53.665Z,3.80
2023-03-28T16:14:21.350Z,3.20
2023-03-28T16:16:53.780Z,4.87
2023-03-28T16:19:30.711Z,3.90
2023-03-28T16:22:00.470Z,3.93
2023-03-28T16:24:31.454Z,4.97
2023-03-28T16:26:59.818Z,5.50
2023-03-28T16:29:28.874Z,3.47
2023-03-28T16:31:56.918Z,4.17
2023-03-28T16:34:24.287Z,4.53
2023-03-28T16:36:51.838Z,3.97
2023-03-28T16:39:18.843Z,4.13
2023-03-28T16:41:45.714Z,3.47
2023-03-28T16:44:12.645Z,4.87
2023-03-28T16:46:39.663Z,4.33
2023-03-28T16:49:07.345Z,2.70
2023-03-28T16:51:34.160Z,5.40
2023-03-28T16:54:01.042Z,4.97
2023-03-28T16:56:28.355Z,5.43
2023-03-28T16:58:55.269Z,4.40
2023-03-28T17:01:22.893Z,4.50
2023-03-28T17:03:52.773Z,4.27
2023-03-28T17:06:19.736Z,4.70
2023-03-28T17:08:46.619Z,5.90
2023-03-28T17:11:14.557Z,3.87
2023-03-28T17:13:42.939Z,4.73
2023-03-28T17:16:10.761Z,3.83
2023-03-28T17:18:37.844Z,3.10
2023-03-28T17:21:10.041Z,3.80
2023-03-28T17:23:38.730Z,4.50
2023-03-28T17:26:07.876Z,4.50
2023-03-28T17:28:39.264Z,5.03
2023-03-28T17:31:17.218Z,3.20
2023-03-28T17:33:45.744Z,4.13
2023-03-28T17:36:27.338Z,5.50
2023-03-28T17:38:56.330Z,3.97
2023-03-28T17:41:24.936Z,5.93
2023-03-28T17:43:53.240Z,4.40
2023-03-28T17:46:27.848Z,4.57
2023-03-28T17:48:55.072Z,3.37
2023-03-28T17:51:22.709Z,6.63
2023-03-28T17:53:50.289Z,2.87
2023-03-28T17:56:17.282Z,4.60
2023-03-28T17:58:44.755Z,2.10
2023-03-28T18:01:19.809Z,5.13
2023-03-28T18:03:47.546Z,2.40
2023-03-28T18:06:14.699Z,2.63
2023-03-28T18:08:44.949Z,3.90
2023-03-28T18:11:15.458Z,3.57
2023-03-28T18:13:42.326Z,2.53
2023-03-28T18:16:12.232Z,4.10
2023-03-28T18:18:40.417Z,6.17
2023-03-28T18:21:08.535Z,6.03
2023-03-28T18:23:36.859Z,2.83
2023-03-28T18:26:04.147Z,2.60
2023-03-28T18:28:31.377Z,2.80
2023-03-28T18:31:11.356Z,4.13
2023-03-28T18:33:39.226Z,4.80
2023-03-28T18:36:06.646Z,3.33
2023-03-28T18:38:38.383Z,3.60
2023-03-28T18:41:06.903Z,3.20
2023-03-28T18:43:37.745Z,6.00
2023-03-28T18:46:07.732Z,6.77
2023-03-28T18:48:35.216Z,4.37
2023-03-28T18:51:03.268Z,5.47
2023-03-28T18:53:30.355Z,9.20
2023-03-28T18:55:57.423Z,5.63
2023-03-28T18:58:26.019Z,5.03
2023-03-28T19:01:00.487Z,5.10
2023-03-28T19:03:39.920Z,5.60
2023-03-28T19:06:08.149Z,6.23
2023-03-28T19:08:35.093Z,4.60
2023-03-28T19:11:11.927Z,6.37
2023-03-28T19:13:39.589Z,7.20
2023-03-28T19:16:09.476Z,4.97
2023-03-28T19:18:42.048Z,5.20
2023-03-28T19:21:10.780Z,6.37
2023-03-28T19:23:38.044Z,5.57
2023-03-28T19:26:07.335Z,6.20
2023-03-28T19:28:35.053Z,8.20
2023-03-28T19:31:07.455Z,7.93
2023-03-28T19:33:35.680Z,7.13
2023-03-28T19:36:03.073Z,7.77
2023-03-28T19:38:34.882Z,10.23
2023-03-28T19:41:04.458Z,9.40
2023-03-28T19:43:31.806Z,7.67
2023-03-28T19:46:03.502Z,8.70
2023-03-28T19:48:31.795Z,9.60
2023-03-28T19:50:58.810Z,7.43
2023-03-28T19:53:25.814Z,9.67
2023-03-28T19:55:59.096Z,8.67
2023-03-28T19:58:27.369Z,8.30
2023-03-28T20:00:58.004Z,10.30
2023-03-28T20:03:25.607Z,8.57
2023-03-28T20:05:52.736Z,6.53
2023-03-28T20:08:21.476Z,7.63
2023-03-28T20:10:51.561Z,7.47
2023-03-28T20:13:18.813Z,6.87
2023-03-28T20:15:47.050Z,7.23
2023-03-28T20:18:19.925Z,7.73
2023-03-28T20:20:56.956Z,7.07
2023-03-28T20:23:25.942Z,6.03
2023-03-28T20:25:53.522Z,8.13
2023-03-28T20:28:24.470Z,8.13
2023-03-28T20:30:53.290Z,9.90
2023-03-28T20:33:20.730Z,7.77
2023-03-28T20:35:54.828Z,7.93
2023-03-28T20:38:21.740Z,8.27
2023-03-28T20:40:48.788Z,7.50
2023-03-28T20:43:22.121Z,5.00
2023-03-28T20:45:56.230Z,9.23
2023-03-28T20:48:36.307Z,9.23
2023-03-28T20:51:22.296Z,7.97
2023-03-28T20:53:54.450Z,7.37
2023-03-28T20:56:21.843Z,6.30
2023-03-28T20:58:50.983Z,7.50
2023-03-28T21:01:18.806Z,6.67
2023-03-28T21:03:49.298Z,6.00
2023-03-28T21:06:21.408Z,9.63
2023-03-28T21:08:50.036Z,6.53
2023-03-28T21:11:26.416Z,5.83
2023-03-28T21:13:54.501Z,5.13
2023-03-28T21:16:21.869Z,7.03
2023-03-28T21:18:49.371Z,7.47
2023-03-28T21:21:18.182Z,6.27
2023-03-28T21:23:46.718Z,5.30
2023-03-28T21:26:18.740Z,7.20
2023-03-28T21:28:45.871Z,5.73
2023-03-28T21:31:17.868Z,4.93
2023-03-28T21:33:50.575Z,8.70
2023-03-28T21:36:19.134Z,5.37
2023-03-28T21:38:47.513Z,5.90
2023-03-28T21:41:31.347Z,4.87
2023-03-28T21:43:58.394Z,4.80
2023-03-28T21:46:25.593Z,5.70
2023-03-28T21:48:52.635Z,4.93
2023-03-28T21:51:19.618Z,7.67
2023-03-28T21:53:46.558Z,4.60
2023-03-28T21:56:14.437Z,7.07
2023-03-28T21:58:44.483Z,9.57
2023-03-28T22:01:13.896Z,4.77
2023-03-28T22:03:41.297Z,5.83
2023-03-28T22:06:08.697Z,6.20
2023-03-28T22:08:35.599Z,6.77
2023-03-28T22:11:04.436Z,6.33
2023-03-28T22:13:31.749Z,7.23
2023-03-28T22:15:59.992Z,5.83
2023-03-28T22:18:28.115Z,6.00
2023-03-28T22:20:55.163Z,5.13
2023-03-28T22:23:23.590Z,6.47
2023-03-28T22:25:53.425Z,4.90
2023-03-28T22:28:24.572Z,4.50
2023-03-28T22:30:56.696Z,4.87
2023-03-28T22:33:25.478Z,5.77
2023-03-28T22:35:57.970Z,5.60
2023-03-28T22:38:25.454Z,5.53
2023-03-28T22:40:52.412Z,6.30
2023-03-28T22:43:19.437Z,6.53
2023-03-28T22:45:46.237Z,4.17
2023-03-28T22:48:16.175Z,5.17
2023-03-28T22:50:47.286Z,4.63
2023-03-28T22:53:14.930Z,6.17
2023-03-28T22:55:43.604Z,6.17
2023-03-28T22:58:11.802Z,5.97
2023-03-28T23:00:38.917Z,6.50
2023-03-28T23:03:05.791Z,4.87
2023-03-28T23:05:35.511Z,5.00
2023-03-28T23:08:02.667Z,8.27
2023-03-28T23:10:29.983Z,9.27
2023-03-28T23:12:57.088Z,8.27
2023-03-28T23:15:24.469Z,7.80
2023-03-28T23:17:52.207Z,6.93
2023-03-28T23:20:19.682Z,6.67
2023-03-28T23:22:49.661Z,7.03
2023-03-28T23:25:18.895Z,8.73
2023-03-28T23:27:46.762Z,4.97
2023-03-28T23:30:15.057Z,9.47
2023-03-28T23:32:41.959Z,4.80
2023-03-28T23:35:10.478Z,7.47
2023-03-28T23:37:38.441Z,10.70
2023-03-28T23:40:10.540Z,7.07
2023-03-28T23:42:37.411Z,11.13
2023-03-28T23:45:04.607Z,7.83
2023-03-28T23:47:31.473Z,9.33
2023-03-28T23:49:58.221Z,7.97
2023-03-28T23:52:25.077Z,8.90
2023-03-28T23:54:52.347Z,12.40
2023-03-28T23:57:19.236Z,9.13
2023-03-28T23:59:46.065Z,9.57
